Time;durP1;ratioP1;P1;durP2;ratioP2;P2;SDS_P1;SDS_P2;PMS_P1;PMS_P2;Temp;Humidity;BMP_temperature;BMP_pressure;BME280_temperature;BME280_humidity;BME280_pressure;Samples;Min_cycle;Max_cycle;Signal;HPM_P1;HPM_P2
2022/02/06 00:02:16;;;;;;;3.40;1.30;;;5.70;99.90;;;;;;5071787;28;20274;-60
2022/02/06 00:04:45;;;;;;;2.97;1.20;;;5.70;99.90;;;;;;5071680;28;20205;-62
2022/02/06 00:07:14;;;;;;;2.93;1.03;;;5.70;99.90;;;;;;5071725;28;20586;-61
2022/02/06 00:09:41;;;;;;;6.20;1.43;;;5.60;99.90;;;;;;5071372;28;20691;-61
2022/02/06 00:12:09;;;;;;;2.60;1.33;;;5.70;99.90;;;;;;5071653;28;20228;-61
2022/02/06 00:14:36;;;;;;;2.13;1.00;;;5.60;99.90;;;;;;5071450;28;20212;-61
2022/02/06 00:17:03;;;;;;;4.93;1.30;;;5.60;99.90;;;;;;5071446;28;20262;-61
2022/02/06 00:19:30;;;;;;;4.10;1.30;;;5.60;99.90;;;;;;5071510;28;20262;-62
2022/02/06 00:21:57;;;;;;;2.87;1.50;;;5.60;99.90;;;;;;5071028;28;20232;-61
2022/02/06 00:24:33;;;;;;;2.97;1.70;;;5.60;99.90;;;;;;5071664;28;20208;-61
2022/02/06 00:27:04;;;;;;;3.57;1.23;;;5.60;99.90;;;;;;5071203;28;20653;-61
2022/02/06 00:29:42;;;;;;;3.53;1.10;;;5.60;99.90;;;;;;5071773;28;20212;-60
2022/02/06 00:32:20;;;;;;;5.07;1.50;;;5.60;99.90;;;;;;5071286;28;20221;-61
2022/02/06 00:35:13;;;;;;;4.20;1.73;;;5.50;99.90;;;;;;5071393;28;20571;-60
2022/02/06 00:40:28;;;;;;;4.33;1.40;;;5.60;99.90;;;;;;5075094;28;20232;-62
2022/02/06 00:42:55;;;;;;;5.03;1.50;;;5.60;99.90;;;;;;5074612;28;20586;-60
2022/02/06 00:45:22;;;;;;;3.13;1.50;;;5.70;99.90;;;;;;5074823;28;20694;-61
2022/02/06 00:47:48;;;;;;;4.80;1.53;;;5.60;99.90;;;;;;5074683;28;20208;-60
2022/02/06 00:50:15;;;;;;;6.43;1.83;;;5.70;99.90;;;;;;5074725;28;20201;-61
2022/02/06 00:52:52;;;;;;;3.87;1.33;;;5.70;99.90;;;;;;5074392;28;20236;-62
2022/02/06 00:55:19;;;;;;;3.93;1.67;;;5.70;99.90;;;;;;5074582;28;20253;-62
2022/02/06 00:57:48;;;;;;;5.80;1.70;;;5.70;99.90;;;;;;5074518;28;20209;-60
2022/02/06 01:00:15;;;;;;;2.47;1.47;;;5.60;99.90;;;;;;5074785;28;20261;-61
2022/02/06 01:02:41;;;;;;;5.67;1.70;;;5.70;99.90;;;;;;5073786;28;20701;-61
2022/02/06 01:05:09;;;;;;;5.50;1.73;;;5.70;99.90;;;;;;5074330;28;20227;-61
2022/02/06 01:07:35;;;;;;;4.60;1.70;;;5.70;99.90;;;;;;5074040;28;20262;-60
2022/02/06 01:10:02;;;;;;;2.33;1.80;;;5.70;99.90;;;;;;5074455;28;20841;-61
2022/02/06 01:12:32;;;;;;;6.97;2.10;;;5.70;99.90;;;;;;5074591;28;20217;-60
2022/02/06 01:15:06;;;;;;;6.43;2.03;;;5.70;99.90;;;;;;5074329;28;20287;-58
2022/02/06 01:17:37;;;;;;;7.13;1.90;;;5.70;99.90;;;;;;5074287;28;20214;-60
2022/02/06 01:20:10;;;;;;;9.10;1.87;;;5.70;99.90;;;;;;5074071;28;20205;-60
2022/02/06 01:22:46;;;;;;;3.23;1.83;;;5.80;99.90;;;;;;5074538;28;20240;-61
2022/02/06 01:25:18;;;;;;;6.20;2.00;;;5.80;99.90;;;;;;5074133;28;20581;-61
2022/02/06 01:27:52;;;;;;;2.90;1.43;;;5.80;99.90;;;;;;5074152;28;20207;-61
2022/02/06 01:30:25;;;;;;;3.77;1.33;;;5.90;99.90;;;;;;5073918;28;20211;-61
2022/02/06 01:32:56;;;;;;;6.43;1.43;;;5.90;99.90;;;;;;5073685;28;20228;-62
2022/02/06 01:35:30;;;;;;;3.80;1.70;;;5.90;99.90;;;;;;5073952;28;20208;-61
2022/02/06 01:38:09;;;;;;;3.10;1.77;;;5.90;99.90;;;;;;5073968;28;20269;-61
2022/02/06 01:40:42;;;;;;;5.57;1.30;;;5.90;99.90;;;;;;5073699;28;20697;-60
2022/02/06 01:43:13;;;;;;;8.23;1.90;;;5.90;99.90;;;;;;5073689;28;20231;-60
2022/02/06 01:46:08;;;;;;;5.57;2.03;;;6.00;99.90;;;;;;5073894;28;20287;-61
2022/02/06 02:02:37;;;;;;;8.70;2.20;;;6.10;99.90;;;;;;5073082;28;20741;-61
2022/02/06 02:05:35;;;;;;;7.57;1.87;;;6.00;99.90;;;;;;5073365;28;20215;-61
2022/02/06 02:11:05;;;;;;;3.17;1.80;;;6.00;99.90;;;;;;5072980;28;20208;-59
2022/02/06 02:16:45;;;;;;;10.60;2.53;;;5.90;99.90;;;;;;5042071;28;20253;-61
2022/02/06 02:19:33;;;;;;;6.87;1.97;;;5.90;99.90;;;;;;5073302;28;20220;-61
2022/02/06 02:22:32;;;;;;;4.80;2.20;;;6.00;99.90;;;;;;5072868;28;20225;-60
2022/02/06 02:25:26;;;;;;;9.10;2.67;;;5.90;99.90;;;;;;5072787;28;20216;-61
2022/02/06 02:28:06;;;;;;;3.80;1.83;;;5.90;99.90;;;;;;5072681;28;20238;-61
2022/02/06 02:42:48;;;;;;;7.87;2.57;;;5.90;99.90;;;;;;5072526;28;20251;-62
2022/02/06 02:47:42;;;;;;;5.93;1.90;;;5.90;99.90;;;;;;5057012;28;20203;-60
2022/02/06 02:50:13;;;;;;;3.47;1.60;;;5.90;99.90;;;;;;5073463;28;20234;-60
2022/02/06 02:52:57;;;;;;;4.27;2.30;;;6.00;99.90;;;;;;5073726;28;20255;-60
2022/02/06 02:55:41;;;;;;;3.93;1.73;;;6.00;99.90;;;;;;5073594;28;20209;-62
2022/02/06 02:58:22;;;;;;;6.80;2.33;;;6.00;99.90;;;;;;5072955;28;20745;-61
2022/02/06 03:00:57;;;;;;;7.63;3.00;;;6.00;99.90;;;;;;5071448;28;20245;-62
2022/02/06 03:03:27;;;;;;;6.60;2.40;;;5.90;99.90;;;;;;5072387;28;20285;-61
2022/02/06 03:05:55;;;;;;;7.43;2.30;;;5.90;99.90;;;;;;5072249;28;20208;-61
2022/02/06 03:08:23;;;;;;;7.47;2.43;;;5.90;99.90;;;;;;5073121;28;20204;-60
2022/02/06 03:10:53;;;;;;;7.67;2.20;;;5.90;99.90;;;;;;5072206;28;20211;-61
2022/02/06 03:13:23;;;;;;;7.17;2.93;;;5.90;99.90;;;;;;5072191;28;20225;-59
2022/02/06 03:16:02;;;;;;;6.93;2.17;;;6.00;99.90;;;;;;5072006;28;20200;-59
2022/02/06 03:18:31;;;;;;;6.97;2.17;;;6.00;99.90;;;;;;5072121;28;20209;-58
2022/02/06 03:21:00;;;;;;;6.13;1.93;;;6.00;99.90;;;;;;5071742;28;20244;-59
2022/02/06 03:23:28;;;;;;;8.23;2.00;;;6.00;99.90;;;;;;5072243;28;20225;-61
2022/02/06 03:25:56;;;;;;;7.40;2.40;;;6.00;99.90;;;;;;5071763;28;20612;-62
2022/02/06 03:28:24;;;;;;;5.13;2.30;;;6.00;99.90;;;;;;5072375;28;20208;-61
2022/02/06 03:30:51;;;;;;;3.63;1.93;;;6.00;99.90;;;;;;5072413;28;20258;-62
2022/02/06 03:33:19;;;;;;;3.77;2.17;;;6.00;99.90;;;;;;5071957;28;20264;-61
2022/02/06 03:35:45;;;;;;;4.10;1.87;;;6.00;99.90;;;;;;5071696;28;20205;-60
2022/02/06 03:38:13;;;;;;;5.00;1.70;;;6.00;99.90;;;;;;5071895;28;20629;-59
2022/02/06 03:40:43;;;;;;;8.73;2.23;;;6.00;99.90;;;;;;5071991;28;20209;-59
2022/02/06 03:43:16;;;;;;;10.67;3.63;;;6.00;99.90;;;;;;5071973;28;20279;-59
2022/02/06 03:45:46;;;;;;;5.90;2.20;;;6.00;99.90;;;;;;5072589;28;20201;-59
2022/02/06 03:48:18;;;;;;;7.83;2.00;;;6.00;99.90;;;;;;5071900;28;20197;-62
2022/02/06 03:50:49;;;;;;;8.73;1.97;;;6.00;99.90;;;;;;5072456;28;20304;-61
2022/02/06 03:53:19;;;;;;;4.47;2.63;;;6.10;99.90;;;;;;5072185;28;20225;-61
2022/02/06 03:55:46;;;;;;;6.03;2.03;;;6.10;99.90;;;;;;5072003;28;20663;-61
2022/02/06 03:58:14;;;;;;;5.90;2.03;;;6.00;99.90;;;;;;5071418;28;20209;-61
2022/02/06 04:00:41;;;;;;;5.03;2.30;;;6.10;99.90;;;;;;5071528;28;20201;-61
2022/02/06 04:03:08;;;;;;;7.27;2.47;;;6.10;99.90;;;;;;5071495;28;20236;-61
2022/02/06 04:05:37;;;;;;;4.93;2.00;;;6.00;99.90;;;;;;5071651;28;20211;-61
2022/02/06 04:08:06;;;;;;;5.77;2.47;;;6.00;99.90;;;;;;5071219;28;20251;-61
2022/02/06 04:10:36;;;;;;;6.57;2.23;;;6.10;99.90;;;;;;5071544;28;20239;-61
2022/02/06 04:13:04;;;;;;;6.63;2.47;;;6.10;99.90;;;;;;5075457;28;20232;-61
2022/02/06 04:15:40;;;;;;;4.73;2.17;;;6.10;99.90;;;;;;5075519;28;20213;-61
2022/02/06 04:18:11;;;;;;;6.33;2.37;;;6.10;99.90;;;;;;5075519;28;20216;-62
2022/02/06 04:20:38;;;;;;;7.03;2.40;;;6.10;99.90;;;;;;5075124;28;20247;-61
2022/02/06 04:23:05;;;;;;;3.60;2.00;;;6.10;99.90;;;;;;5075178;28;20255;-61
2022/02/06 04:25:32;;;;;;;6.17;2.23;;;6.10;99.90;;;;;;5075183;28;20686;-61
2022/02/06 04:27:58;;;;;;;3.63;2.17;;;6.10;99.90;;;;;;5075399;28;20204;-61
2022/02/06 04:30:25;;;;;;;6.67;2.07;;;6.10;99.90;;;;;;5075193;28;20205;-61
2022/02/06 04:32:54;;;;;;;5.37;2.60;;;6.10;99.90;;;;;;5074967;28;20225;-60
2022/02/06 04:35:21;;;;;;;4.70;1.73;;;6.20;99.90;;;;;;5075016;28;20291;-60
2022/02/06 04:38:03;;;;;;;6.60;2.20;;;6.20;99.90;;;;;;5075266;28;20207;-61
2022/02/06 04:40:44;;;;;;;3.37;2.03;;;6.10;99.90;;;;;;5074716;28;20302;-59
2022/02/06 04:43:49;;;;;;;5.53;2.07;;;6.10;99.90;;;;;;5075114;28;20319;-61
2022/02/06 04:46:44;;;;;;;6.40;2.23;;;6.10;99.90;;;;;;5074473;28;20215;-59
2022/02/06 04:49:44;;;;;;;3.50;1.97;;;6.20;99.90;;;;;;5074593;28;20266;-59
2022/02/06 04:52:51;;;;;;;10.43;2.23;;;6.10;99.90;;;;;;5074420;28;20231;-59
2022/02/06 04:55:35;;;;;;;4.27;2.20;;;6.10;99.90;;;;;;5074818;28;20226;-60
2022/02/06 05:15:00;;;;;;;4.93;2.47;;;6.20;99.90;;;;;;5074570;28;20613;-60
2022/02/06 05:17:49;;;;;;;4.33;1.97;;;6.20;99.90;;;;;;5074137;28;20209;-60
2022/02/06 05:20:40;;;;;;;4.50;2.57;;;6.20;99.90;;;;;;5074608;28;20306;-58
2022/02/06 05:26:30;;;;;;;3.83;1.80;;;6.20;99.90;;;;;;5089183;28;20599;-59
2022/02/06 05:29:02;;;;;;;4.00;2.30;;;6.20;99.90;;;;;;5089349;28;20208;-60
2022/02/06 05:31:37;;;;;;;4.20;2.00;;;6.20;99.90;;;;;;5089337;28;20254;-60
2022/02/06 05:34:04;;;;;;;7.00;2.33;;;6.30;99.90;;;;;;5068822;28;20211;-60
2022/02/06 05:36:31;;;;;;;5.27;2.73;;;6.20;99.90;;;;;;5068840;28;20295;-60
2022/02/06 05:38:58;;;;;;;5.90;2.57;;;6.30;99.90;;;;;;5068855;28;20204;-60
2022/02/06 05:41:26;;;;;;;6.77;2.60;;;6.30;99.90;;;;;;5069113;28;20235;-60
2022/02/06 05:43:53;;;;;;;5.10;1.93;;;6.30;99.90;;;;;;5068695;28;20315;-60
2022/02/06 05:46:20;;;;;;;5.67;2.40;;;6.20;99.90;;;;;;5068790;28;20209;-60
2022/02/06 05:48:47;;;;;;;3.80;2.00;;;6.20;99.90;;;;;;5068746;28;20205;-60
2022/02/06 05:51:14;;;;;;;5.60;2.93;;;6.20;99.90;;;;;;5068764;28;20205;-61
2022/02/06 05:53:42;;;;;;;2.40;1.63;;;6.20;99.90;;;;;;5068801;28;20225;-60
2022/02/06 05:56:09;;;;;;;3.23;2.33;;;6.20;99.90;;;;;;5068595;28;20239;-58
2022/02/06 05:58:37;;;;;;;3.30;2.13;;;6.20;99.90;;;;;;5068685;28;20216;-60
2022/02/06 06:01:04;;;;;;;4.23;2.47;;;6.30;99.90;;;;;;5068458;28;20202;-61
2022/02/06 06:03:31;;;;;;;5.23;2.33;;;6.30;99.90;;;;;;5068185;28;20717;-60
2022/02/06 06:05:58;;;;;;;6.93;2.90;;;6.30;99.90;;;;;;5068460;28;20236;-58
2022/02/06 06:08:24;;;;;;;3.97;2.53;;;6.30;99.90;;;;;;5068722;28;20216;-57
2022/02/06 06:10:51;;;;;;;9.83;2.63;;;6.30;99.90;;;;;;5068340;28;20205;-57
2022/02/06 06:13:18;;;;;;;9.30;2.53;;;6.30;99.90;;;;;;5069407;28;20233;-60
2022/02/06 06:15:46;;;;;;;5.37;2.60;;;6.30;99.90;;;;;;5069357;28;20212;-60
2022/02/06 06:18:14;;;;;;;4.43;2.00;;;6.30;99.90;;;;;;5069751;28;20228;-61
2022/02/06 06:20:43;;;;;;;6.43;2.07;;;6.40;99.90;;;;;;5068806;28;20688;-59
2022/02/06 06:23:10;;;;;;;3.30;2.20;;;6.40;99.90;;;;;;5068300;28;20227;-60
2022/02/06 06:25:39;;;;;;;4.40;1.67;;;6.30;99.90;;;;;;5068561;28;20725;-60
2022/02/06 06:28:06;;;;;;;5.47;2.07;;;6.30;99.90;;;;;;5068486;28;20220;-61
2022/02/06 06:30:35;;;;;;;6.27;2.30;;;6.30;99.90;;;;;;5068085;28;20262;-61
2022/02/06 06:33:03;;;;;;;4.30;2.40;;;6.40;99.90;;;;;;5067509;28;20229;-60
2022/02/06 06:35:30;;;;;;;2.17;1.97;;;6.30;99.90;;;;;;5065209;28;20206;-61
2022/02/06 06:37:59;;;;;;;5.50;2.43;;;6.30;99.90;;;;;;5054636;28;20229;-61
2022/02/06 06:40:26;;;;;;;5.17;2.17;;;6.30;99.90;;;;;;5054948;28;20671;-60
2022/02/06 06:42:53;;;;;;;4.83;2.00;;;6.30;99.90;;;;;;5054445;28;20230;-60
2022/02/06 06:45:20;;;;;;;4.23;2.10;;;6.40;99.90;;;;;;5054273;28;20218;-61
2022/02/06 06:47:51;;;;;;;5.87;2.03;;;6.40;99.90;;;;;;5054134;28;20721;-61
2022/02/06 06:50:19;;;;;;;3.23;2.10;;;6.40;99.90;;;;;;5054534;28;20297;-62
2022/02/06 06:52:47;;;;;;;3.00;2.20;;;6.40;99.90;;;;;;5054147;28;20233;-61
2022/02/06 06:55:16;;;;;;;4.20;1.83;;;6.40;99.90;;;;;;5054416;28;20248;-61
2022/02/06 06:57:51;;;;;;;5.07;2.10;;;6.40;99.90;;;;;;5054256;28;20206;-61
2022/02/06 07:00:24;;;;;;;6.00;2.37;;;6.40;99.90;;;;;;5054574;28;20224;-60
2022/02/06 07:02:51;;;;;;;2.40;2.10;;;6.40;99.90;;;;;;5054458;28;20856;-60
2022/02/06 07:05:19;;;;;;;3.40;1.87;;;6.40;99.90;;;;;;5054150;28;20696;-60
2022/02/06 07:07:46;;;;;;;3.13;1.83;;;6.50;99.90;;;;;;5054192;28;20212;-60
2022/02/06 07:10:13;;;;;;;4.33;2.10;;;6.50;99.90;;;;;;5053569;28;20236;-62
2022/02/06 07:12:39;;;;;;;2.30;1.90;;;6.50;99.90;;;;;;5054160;28;20837;-59
2022/02/06 07:15:07;;;;;;;8.17;1.67;;;6.50;99.90;;;;;;5053393;28;20745;-59
2022/02/06 07:17:33;;;;;;;2.83;1.90;;;6.50;99.90;;;;;;5053902;28;20450;-60
2022/02/06 07:20:02;;;;;;;4.03;1.80;;;6.50;99.90;;;;;;5053765;28;20637;-61
2022/02/06 07:22:34;;;;;;;2.80;2.00;;;6.50;99.90;;;;;;5054104;28;20723;-59
2022/02/06 07:25:02;;;;;;;3.43;2.20;;;6.50;99.90;;;;;;5053482;28;20236;-61
2022/02/06 07:27:31;;;;;;;2.83;2.10;;;6.60;99.90;;;;;;5053860;28;20205;-60
2022/02/06 07:30:03;;;;;;;4.43;2.00;;;6.50;99.90;;;;;;5053842;28;20209;-61
2022/02/06 07:32:31;;;;;;;3.90;2.50;;;6.60;99.90;;;;;;5053782;28;20230;-60
2022/02/06 07:34:58;;;;;;;8.17;2.90;;;6.50;99.90;;;;;;5053659;28;20206;-61
2022/02/06 07:37:25;;;;;;;4.83;2.43;;;6.60;99.90;;;;;;5053275;28;20217;-60
2022/02/06 07:39:53;;;;;;;6.37;2.30;;;6.60;99.90;;;;;;5053667;28;20263;-60
2022/02/06 07:42:19;;;;;;;5.67;2.63;;;6.60;99.90;;;;;;5053678;28;20259;-60
2022/02/06 07:44:48;;;;;;;7.10;3.00;;;6.60;99.90;;;;;;5053579;28;20225;-60
2022/02/06 07:47:16;;;;;;;2.83;2.20;;;6.60;99.90;;;;;;5052426;28;20601;-59
2022/02/06 07:49:46;;;;;;;4.43;2.10;;;6.60;99.90;;;;;;5052984;28;20212;-59
2022/02/06 07:52:13;;;;;;;6.23;2.27;;;6.60;99.90;;;;;;5052957;28;20324;-60
2022/02/06 07:54:39;;;;;;;5.43;2.03;;;6.60;99.90;;;;;;5053202;28;20209;-59
2022/02/06 07:57:07;;;;;;;1.73;1.30;;;6.60;99.90;;;;;;5052916;28;20213;-60
2022/02/06 07:59:35;;;;;;;2.87;2.00;;;6.60;99.90;;;;;;5053113;28;20255;-60
2022/02/06 08:02:04;;;;;;;3.57;1.90;;;6.60;99.90;;;;;;5053310;28;20256;-60
2022/02/06 08:04:30;;;;;;;3.80;2.20;;;6.60;99.90;;;;;;5052840;28;20206;-61
2022/02/06 08:06:57;;;;;;;2.70;1.90;;;6.60;99.90;;;;;;5053155;28;20206;-61
2022/02/06 08:09:37;;;;;;;4.60;1.57;;;6.50;99.90;;;;;;5052978;28;20217;-60
2022/02/06 08:12:05;;;;;;;3.37;2.00;;;6.60;99.90;;;;;;5052873;28;20275;-60
2022/02/06 08:14:54;;;;;;;3.33;1.90;;;6.60;99.90;;;;;;5052535;28;20302;-61
2022/02/06 08:17:23;;;;;;;3.50;1.83;;;6.50;99.90;;;;;;5053050;28;20214;-61
2022/02/06 08:19:50;;;;;;;2.80;1.90;;;6.50;99.90;;;;;;5052655;28;20201;-61
2022/02/06 08:22:17;;;;;;;2.10;1.67;;;6.50;99.90;;;;;;5052600;28;20233;-60
2022/02/06 08:24:44;;;;;;;6.23;1.70;;;6.60;99.90;;;;;;5052427;28;20703;-61
2022/02/06 08:27:11;;;;;;;3.87;1.77;;;6.50;99.90;;;;;;5052323;28;20206;-60
2022/02/06 08:29:42;;;;;;;2.17;1.37;;;6.60;99.90;;;;;;5052132;28;20659;-58
2022/02/06 08:32:09;;;;;;;1.73;1.40;;;6.60;99.90;;;;;;5052627;28;20316;-61
2022/02/06 08:34:36;;;;;;;3.73;1.67;;;6.60;99.90;;;;;;5052287;28;20245;-61
2022/02/06 08:37:03;;;;;;;1.43;1.33;;;6.60;99.90;;;;;;5052581;28;20201;-60
2022/02/06 08:39:31;;;;;;;3.23;1.17;;;6.60;99.90;;;;;;5052218;28;20214;-61
2022/02/06 08:41:58;;;;;;;2.17;1.20;;;6.60;99.90;;;;;;5052228;28;20257;-61
2022/02/06 08:44:25;;;;;;;3.13;1.30;;;6.60;99.90;;;;;;5052225;28;20210;-61
2022/02/06 08:46:53;;;;;;;1.53;1.17;;;6.60;99.90;;;;;;5051836;28;20231;-59
2022/02/06 08:49:20;;;;;;;2.30;1.33;;;6.60;99.90;;;;;;5052275;28;20234;-61
2022/02/06 08:51:48;;;;;;;3.37;1.30;;;6.60;99.90;;;;;;5051935;28;20213;-61
2022/02/06 08:54:15;;;;;;;3.77;0.93;;;6.60;99.90;;;;;;5052139;28;20217;-61
2022/02/06 08:56:42;;;;;;;1.33;1.20;;;6.70;99.90;;;;;;5051800;28;20202;-61
2022/02/06 08:59:09;;;;;;;2.60;1.20;;;6.70;99.90;;;;;;5052029;28;20206;-60
2022/02/06 09:01:37;;;;;;;1.40;0.97;;;6.70;99.90;;;;;;5051640;28;20214;-60
2022/02/06 09:04:05;;;;;;;3.27;1.33;;;6.70;99.90;;;;;;5052049;28;20212;-61
2022/02/06 09:06:32;;;;;;;5.87;1.47;;;6.70;99.90;;;;;;5051605;28;20226;-61
2022/02/06 09:09:00;;;;;;;2.03;1.20;;;6.80;99.90;;;;;;5051853;28;20209;-61
2022/02/06 09:11:29;;;;;;;3.67;1.10;;;6.70;99.90;;;;;;5052113;28;20546;-61
2022/02/06 09:13:57;;;;;;;3.40;1.27;;;6.70;99.90;;;;;;5051701;28;20727;-61
2022/02/06 09:16:24;;;;;;;3.60;1.60;;;6.80;99.90;;;;;;5045812;28;20204;-61
2022/02/06 09:18:50;;;;;;;4.37;1.50;;;6.80;99.90;;;;;;5051599;28;20264;-59
2022/02/06 09:21:21;;;;;;;1.20;1.03;;;6.80;99.90;;;;;;5051759;28;20623;-60
2022/02/06 09:23:47;;;;;;;1.30;1.20;;;6.80;99.90;;;;;;5051282;28;20236;-58
2022/02/06 09:26:14;;;;;;;3.30;1.43;;;6.80;99.90;;;;;;5051082;28;20229;-59
2022/02/06 09:28:41;;;;;;;2.57;1.23;;;6.80;99.90;;;;;;5051282;28;20208;-59
2022/02/06 09:31:09;;;;;;;3.50;1.37;;;6.80;99.90;;;;;;5051530;28;20592;-59
2022/02/06 09:38:35;;;;;;;3.73;1.20;;;6.90;99.90;;;;;;5051957;28;20205;-60
2022/02/06 09:41:01;;;;;;;1.67;1.20;;;6.90;99.90;;;;;;5054558;28;20641;-59
2022/02/06 09:43:30;;;;;;;1.47;1.27;;;6.90;99.90;;;;;;5051307;28;20309;-56
2022/02/06 09:45:57;;;;;;;1.80;1.20;;;6.90;99.90;;;;;;5050817;28;20275;-60
2022/02/06 09:48:26;;;;;;;1.30;1.00;;;6.90;99.90;;;;;;5051469;28;20628;-60
2022/02/06 09:50:55;;;;;;;1.17;0.93;;;6.90;99.90;;;;;;5051707;28;20205;-61
2022/02/06 09:53:22;;;;;;;1.67;0.87;;;6.90;99.90;;;;;;5053074;28;20225;-61
2022/02/06 09:55:50;;;;;;;1.27;0.90;;;6.90;99.90;;;;;;5051275;28;20201;-61
2022/02/06 09:58:39;;;;;;;0.80;0.80;;;6.90;99.90;;;;;;5051233;28;20211;-61
2022/02/06 10:01:05;;;;;;;1.67;0.87;;;6.90;99.90;;;;;;5050819;28;20214;-62
2022/02/06 10:03:39;;;;;;;1.40;1.03;;;6.90;99.90;;;;;;5051124;28;20601;-61
2022/02/06 10:06:09;;;;;;;2.40;1.07;;;6.90;99.90;;;;;;5050063;28;20229;-61
2022/02/06 10:08:40;;;;;;;2.53;0.70;;;6.90;99.90;;;;;;5051684;28;20197;-59
2022/02/06 10:11:11;;;;;;;5.30;1.87;;;6.90;99.90;;;;;;5051881;28;20212;-61
2022/02/06 10:13:39;;;;;;;1.87;1.43;;;6.90;99.90;;;;;;5054976;28;20228;-60
2022/02/06 10:16:07;;;;;;;2.87;0.90;;;6.90;99.90;;;;;;5055442;28;20269;-60
2022/02/06 10:18:34;;;;;;;2.33;1.43;;;6.90;99.90;;;;;;5055070;28;20232;-60
2022/02/06 10:21:02;;;;;;;3.47;0.83;;;6.90;99.90;;;;;;5055136;28;20206;-60
2022/02/06 10:23:35;;;;;;;1.07;0.80;;;6.80;99.90;;;;;;5054576;28;20229;-60
2022/02/06 10:26:08;;;;;;;2.73;1.00;;;6.80;99.90;;;;;;5053920;28;20221;-59
2022/02/06 10:28:42;;;;;;;1.03;0.77;;;6.80;99.90;;;;;;5054577;28;20265;-59
2022/02/06 10:31:09;;;;;;;1.80;0.83;;;6.80;99.90;;;;;;5054743;28;20213;-58
2022/02/06 10:33:47;;;;;;;2.73;1.10;;;6.70;99.90;;;;;;5054294;28;20253;-59
2022/02/06 10:36:17;;;;;;;2.80;1.10;;;6.70;99.90;;;;;;5054194;28;20205;-56
2022/02/06 10:38:46;;;;;;;2.40;1.10;;;6.70;99.90;;;;;;5053975;28;20752;-49
2022/02/06 10:41:16;;;;;;;1.47;0.90;;;6.70;99.90;;;;;;5054475;28;20212;-54
2022/02/06 10:43:57;;;;;;;1.60;0.90;;;6.70;99.90;;;;;;5055119;28;20230;-63
2022/02/06 10:46:25;;;;;;;1.93;1.20;;;6.70;99.90;;;;;;5054584;28;20267;-66
2022/02/06 10:48:53;;;;;;;1.43;1.20;;;6.70;99.90;;;;;;5054380;28;20208;-64
2022/02/06 10:51:42;;;;;;;3.63;1.50;;;6.60;99.90;;;;;;5054265;28;20213;-63
2022/02/06 10:54:11;;;;;;;2.23;0.90;;;6.60;99.90;;;;;;5054210;28;20202;-64
2022/02/06 10:56:40;;;;;;;1.50;1.07;;;6.60;99.90;;;;;;5053509;28;20210;-64
2022/02/06 10:59:09;;;;;;;3.47;1.40;;;6.60;99.90;;;;;;5053832;28;20864;-63
2022/02/06 11:01:41;;;;;;;1.20;0.87;;;6.60;99.90;;;;;;5053535;28;20687;-63
2022/02/06 11:04:18;;;;;;;1.77;1.20;;;6.60;99.90;;;;;;5053733;28;20256;-63
2022/02/06 11:06:47;;;;;;;2.17;1.60;;;6.60;99.90;;;;;;5053198;28;20270;-64
2022/02/06 11:09:25;;;;;;;1.80;1.23;;;6.60;99.90;;;;;;5053466;28;20265;-62
2022/02/06 11:11:51;;;;;;;2.93;1.43;;;6.60;99.90;;;;;;5053413;28;20252;-64
2022/02/06 11:14:24;;;;;;;1.00;0.80;;;6.60;99.90;;;;;;5053848;28;20209;-62
2022/02/06 11:16:51;;;;;;;1.10;0.93;;;6.60;99.90;;;;;;5053300;28;20210;-61
2022/02/06 11:19:19;;;;;;;1.90;1.27;;;6.60;99.90;;;;;;5053736;28;20216;-61
2022/02/06 11:21:47;;;;;;;1.13;0.80;;;6.60;99.90;;;;;;5053573;28;20633;-61
2022/02/06 11:24:21;;;;;;;1.40;1.00;;;6.60;99.90;;;;;;5053503;28;20218;-60
2022/02/06 11:26:48;;;;;;;1.30;0.90;;;6.70;99.90;;;;;;5052944;28;20640;-59
2022/02/06 11:29:15;;;;;;;1.07;0.70;;;6.60;99.90;;;;;;5053497;28;20201;-60
2022/02/06 11:31:43;;;;;;;0.80;0.70;;;6.60;99.90;;;;;;5053612;28;20213;-60
2022/02/06 11:34:15;;;;;;;0.90;0.70;;;6.60;99.90;;;;;;5053507;28;20210;-60
2022/02/06 11:45:28;;;;;;;0.70;0.70;;;6.60;99.90;;;;;;5052339;28;20289;-56
2022/02/06 11:48:02;;;;;;;0.80;0.80;;;6.60;99.90;;;;;;5053255;28;20233;-59
2022/02/06 11:50:30;;;;;;;0.70;0.70;;;6.50;99.90;;;;;;5052801;28;20248;-62
2022/02/06 11:52:58;;;;;;;0.40;0.40;;;6.50;99.90;;;;;;5053064;28;20234;-63
2022/02/06 11:55:39;;;;;;;1.37;0.80;;;6.50;99.90;;;;;;5052628;28;20584;-62
2022/02/06 11:58:26;;;;;;;1.00;0.80;;;6.50;99.90;;;;;;5052803;28;20213;-60
2022/02/06 12:01:24;;;;;;;1.10;0.70;;;6.50;99.90;;;;;;5053147;28;20582;-59
2022/02/06 12:04:01;;;;;;;1.00;0.70;;;6.60;99.90;;;;;;5052620;28;20226;-59
2022/02/06 12:06:30;;;;;;;3.33;1.33;;;6.60;99.90;;;;;;5052498;28;20221;-57
2022/02/06 12:09:17;;;;;;;1.80;0.63;;;6.60;99.90;;;;;;5052637;28;20202;-58
2022/02/06 12:12:21;;;;;;;0.67;0.63;;;6.60;99.90;;;;;;5052486;28;20247;-59
2022/02/06 12:14:53;;;;;;;2.07;1.10;;;6.60;99.90;;;;;;5053418;28;20224;-60
2022/02/06 12:17:24;;;;;;;0.53;0.50;;;6.60;99.90;;;;;;5058746;28;20204;-60
2022/02/06 12:20:10;;;;;;;1.40;0.80;;;6.60;99.90;;;;;;5052672;28;20307;-60
2022/02/06 12:22:43;;;;;;;0.80;0.63;;;6.60;99.90;;;;;;5052340;28;20671;-60
2022/02/06 12:25:26;;;;;;;1.00;0.73;;;6.50;99.90;;;;;;5051997;28;20213;-63
2022/02/06 12:28:15;;;;;;;1.03;0.67;;;6.50;99.90;;;;;;5052276;28;20580;-63
2022/02/06 12:30:44;;;;;;;0.67;0.67;;;6.60;99.90;;;;;;5052490;28;20297;-62
2022/02/06 12:33:21;;;;;;;1.13;0.73;;;6.70;99.90;;;;;;5052557;28;20271;-61
2022/02/06 12:38:33;;;;;;;0.50;0.50;;;6.70;99.90;;;;;;5052249;28;20208;-60
2022/02/06 12:41:15;;;;;;;2.93;0.73;;;6.80;99.90;;;;;;5051521;28;20210;-56
2022/02/06 12:43:51;;;;;;;1.10;0.70;;;6.80;99.90;;;;;;5051485;28;20708;-61
2022/02/06 12:46:17;;;;;;;0.97;0.60;;;6.80;99.90;;;;;;5051883;28;20225;-60
2022/02/06 12:48:44;;;;;;;1.50;0.90;;;6.80;99.90;;;;;;5052922;28;20205;-62
2022/02/06 12:51:12;;;;;;;1.10;0.80;;;6.90;99.90;;;;;;5052363;28;20205;-61
2022/02/06 12:53:39;;;;;;;2.00;0.80;;;6.90;99.90;;;;;;5051976;28;20235;-63
2022/02/06 12:56:06;;;;;;;1.27;0.80;;;6.90;99.90;;;;;;5051113;28;20628;-61
2022/02/06 12:58:32;;;;;;;1.40;0.90;;;7.00;99.90;;;;;;5050907;28;20214;-59
2022/02/06 13:00:59;;;;;;;3.40;0.60;;;7.00;99.90;;;;;;5051662;28;20678;-62
2022/02/06 13:03:28;;;;;;;0.93;0.67;;;7.00;99.90;;;;;;5051433;28;20342;-58
2022/02/06 13:06:04;;;;;;;1.10;0.90;;;7.10;99.90;;;;;;5051529;28;20676;-60
2022/02/06 13:08:35;;;;;;;2.13;0.87;;;7.20;99.90;;;;;;5051546;28;20209;-60
2022/02/06 13:11:05;;;;;;;0.80;0.60;;;7.20;99.90;;;;;;5052014;28;20718;-58
2022/02/06 13:13:39;;;;;;;1.77;0.60;;;7.30;99.90;;;;;;5051320;28;20229;-61
2022/02/06 13:16:19;;;;;;;1.00;0.80;;;7.40;99.90;;;;;;5051057;28;20212;-59
2022/02/06 13:19:07;;;;;;;0.93;0.63;;;7.50;99.90;;;;;;5051836;28;20198;-65
2022/02/06 13:21:51;;;;;;;0.97;0.70;;;7.50;99.90;;;;;;5051975;28;20190;-60
2022/02/06 13:24:37;;;;;;;1.07;0.80;;;7.50;99.90;;;;;;5051259;28;20290;-61
2022/02/06 13:27:21;;;;;;;0.50;0.50;;;7.50;99.90;;;;;;5050792;28;20283;-61
2022/02/06 13:29:57;;;;;;;0.77;0.50;;;7.30;99.90;;;;;;5051097;28;20947;-57
2022/02/06 13:32:35;;;;;;;0.80;0.50;;;7.10;99.90;;;;;;5051308;28;20236;-56
2022/02/06 13:35:18;;;;;;;0.93;0.50;;;6.90;99.90;;;;;;5051011;28;20220;-56
2022/02/06 13:37:47;;;;;;;1.43;0.60;;;6.70;99.90;;;;;;5051411;28;20202;-59
2022/02/06 13:40:19;;;;;;;0.80;0.57;;;6.60;99.90;;;;;;5051552;28;20209;-55
2022/02/06 13:43:00;;;;;;;0.60;0.60;;;6.50;99.90;;;;;;5050654;28;20233;-58
2022/02/06 13:45:28;;;;;;;0.70;0.50;;;6.40;99.90;;;;;;5050733;28;20236;-59
2022/02/06 13:47:56;;;;;;;0.87;0.60;;;6.30;99.90;;;;;;5054666;28;20629;-59
2022/02/06 13:50:24;;;;;;;0.77;0.50;;;6.30;99.90;;;;;;5054760;28;20212;-60
2022/02/06 13:53:06;;;;;;;1.10;0.57;;;6.30;99.90;;;;;;5054982;28;20272;-61
2022/02/06 13:55:34;;;;;;;1.10;0.60;;;6.30;99.90;;;;;;5054973;28;20205;-61
2022/02/06 13:58:01;;;;;;;0.80;0.60;;;6.30;99.90;;;;;;5055599;28;20797;-59
2022/02/06 14:00:27;;;;;;;1.00;0.80;;;6.40;99.90;;;;;;5055289;28;20216;-59
2022/02/06 14:02:55;;;;;;;0.50;0.50;;;6.30;99.90;;;;;;5054741;28;20236;-61
2022/02/06 14:05:25;;;;;;;1.70;0.70;;;6.30;99.90;;;;;;5055415;28;20205;-58
2022/02/06 14:08:02;;;;;;;1.50;0.70;;;6.30;99.90;;;;;;5055762;28;20217;-59
2022/02/06 14:10:40;;;;;;;1.40;0.80;;;6.30;99.90;;;;;;5055855;28;20769;-58
2022/02/06 14:13:21;;;;;;;1.07;0.73;;;6.30;99.90;;;;;;5054746;28;20225;-64
2022/02/06 14:15:47;;;;;;;0.67;0.53;;;6.30;99.90;;;;;;5054637;28;20212;-58
2022/02/06 14:18:14;;;;;;;1.23;0.90;;;6.30;99.90;;;;;;5054586;28;20201;-61
2022/02/06 14:20:41;;;;;;;1.70;0.80;;;6.20;99.90;;;;;;5054482;28;20293;-59
2022/02/06 14:23:18;;;;;;;1.90;1.07;;;6.10;99.90;;;;;;5054573;28;20233;-57
2022/02/06 14:25:46;;;;;;;2.63;1.40;;;6.10;99.90;;;;;;5053967;28;20220;-55
2022/02/06 14:28:23;;;;;;;3.73;1.90;;;6.10;99.90;;;;;;5054097;28;20240;-62
2022/02/06 14:30:51;;;;;;;2.83;1.67;;;6.10;99.90;;;;;;5053784;28;20201;-59
2022/02/06 14:33:23;;;;;;;3.13;2.10;;;6.10;99.90;;;;;;5054801;28;20229;-57
2022/02/06 14:35:55;;;;;;;3.07;1.90;;;6.10;99.90;;;;;;5055899;28;20202;-57